Bookmark and Share
Track history (hours):
 

Atlantic Elm

Last reported at 2014-Mar-06 08:30 UTC. Time now 2014-Apr-24 22:15 UTC.
Position N 06°20' W 015°53'.
Warning: this ship's position is 49 days out of date.

Length 190 m; draft 10.9 m.

Type: Cargo ship. MMSI: 229081000.

NotesDate/timePositionNaut miles runAvg speedWind from/ knotsBaromVisibWave heightAir tempDewpointWater temp
2014-Mar-06 08:30N 06°20' W 015°53'1111.9
2014-Mar-06 07:33N 06°25' W 016°03'2912.0
2014-Mar-06 05:09N 06°38' W 016°29'711.9
2014-Mar-06 04:33N 06°41' W 016°35'2711.9
2014-Mar-06 02:16N 06°54' W 016°60'811.7
2014-Mar-06 01:33N 06°58' W 017°07'6211.5
2014-Mar-05 20:11N 07°43' W 017°50'1911.6
2014-Mar-05 18:33N 07°60' W 017°58'1211.7
2014-Mar-05 17:33N 08°10' W 018°03'1411.7
2014-Mar-05 16:22N 08°23' W 018°09'14011.8
2014-Mar-05 04:33N 10°30' W 019°09'  
2014-Feb-26 22:33N 37°38' W 010°14'1111.0
2014-Feb-26 21:33N 37°48' W 010°08'1211.1
2014-Feb-26 20:26N 37°59' W 010°01'3411.3
2014-Feb-26 17:26N 38°27' W 009°36'16 8.7
2014-Feb-26 15:33N 38°40' W 009°23'4 4.0
2014-Feb-26 14:31N 38°40' W 009°18'9 8.6
2014-Feb-26 13:32N 38°42' W 009°07'0 0.1
2014-Feb-26 12:32N 38°42' W 009°07'0 0.1
2014-Feb-26 11:33N 38°42' W 009°07'0 0.0
2014-Feb-26 10:33N 38°42' W 009°07'0 0.1
2014-Feb-26 09:33N 38°42' W 009°07'0 0.1
2014-Feb-26 08:30N 38°42' W 009°07'0 0.2
2014-Feb-26 07:32N 38°41' W 009°07'0 0.1
2014-Feb-26 06:33N 38°41' W 009°08'0 0.0
2014-Feb-26 05:32N 38°42' W 009°08'0 0.0
2014-Feb-26 04:32N 38°41' W 009°08'0 0.1
2014-Feb-26 03:32N 38°42' W 009°08'0 0.0
2014-Feb-26 02:33N 38°42' W 009°08'0 0.2
2014-Feb-26 01:33N 38°42' W 009°07'0 0.1
2014-Feb-26 00:32N 38°42' W 009°07'0 0.0
2014-Feb-25 23:33N 38°42' W 009°07'0 0.0
2014-Feb-25 22:32N 38°42' W 009°07'0 0.0
2014-Feb-25 21:33N 38°42' W 009°07'0 0.0
2014-Feb-25 20:32N 38°42' W 009°07'0 0.0
2014-Feb-25 19:32N 38°42' W 009°07'0 0.2
2014-Feb-25 18:32N 38°41' W 009°07'0 0.2
2014-Feb-25 17:32N 38°42' W 009°08'0 0.1
2014-Feb-25 16:32N 38°42' W 009°08'0 0.1
2014-Feb-25 15:32N 38°41' W 009°08'0 0.1
2014-Feb-25 14:32N 38°42' W 009°07'0 0.2
2014-Feb-25 13:32N 38°42' W 009°07'0 0.2
2014-Feb-25 12:32N 38°42' W 009°07'0 0.1
2014-Feb-25 11:32N 38°42' W 009°07'0 0.0
2014-Feb-25 10:32N 38°42' W 009°07'0 0.0
2014-Feb-25 09:32N 38°42' W 009°07'0 0.1
2014-Feb-25 08:32N 38°42' W 009°07'0 0.0
2014-Feb-25 07:32N 38°42' W 009°07'0 0.1
2014-Feb-25 06:32N 38°41' W 009°07'0 0.1
2014-Feb-25 05:32N 38°41' W 009°07'0 0.1
2014-Feb-25 04:32N 38°41' W 009°07'0 0.0
2014-Feb-25 03:32N 38°41' W 009°07'0 0.1
2014-Feb-25 02:32N 38°41' W 009°08'0 0.0
2014-Feb-25 01:32N 38°41' W 009°08'0 0.3
2014-Feb-25 00:32N 38°42' W 009°07'0 0.2
2014-Feb-24 23:29N 38°42' W 009°07'0 0.0
2014-Feb-24 22:32N 38°42' W 009°07'0 0.0
2014-Feb-24 21:32N 38°42' W 009°07'0 0.0
2014-Feb-24 20:32N 38°42' W 009°07'0 0.0
2014-Feb-24 19:29N 38°42' W 009°07'0 0.0
2014-Feb-24 18:32N 38°42' W 009°07'0 0.1
2014-Feb-24 17:32N 38°41' W 009°07'0 0.1
2014-Feb-24 16:32N 38°41' W 009°07'0 0.1
2014-Feb-24 15:32N 38°41' W 009°07'0 0.0
2014-Feb-24 14:32N 38°41' W 009°07'0 0.1
2014-Feb-24 13:32N 38°42' W 009°07'0 0.1
2014-Feb-24 12:29N 38°42' W 009°07'0 0.2
2014-Feb-24 11:32N 38°42' W 009°07'0 0.1
2014-Feb-24 10:32N 38°42' W 009°07'0 0.0
2014-Feb-24 09:32N 38°42' W 009°07'0 0.0
2014-Feb-24 08:32N 38°42' W 009°07'  

Dump ship's entire track history

sailing weather and tide predictions

Atlantic Elm — 9HA3054 — position and weather